Time;durP1;ratioP1;P1;durP2;ratioP2;P2;SDS_P1;SDS_P2;PMS_P1;PMS_P2;Temp;Humidity;BMP_temperature;BMP_pressure;BME280_temperature;BME280_humidity;BME280_pressure;Samples;Min_cycle;Max_cycle;Signal;HPM_P1;HPM_P2
2022/05/17 00:00:24;;;;;;;8.43;3.30;;;18.20;94.00;;;;;;4980346;28;20029;-86
2022/05/17 00:02:50;;;;;;;9.63;3.20;;;18.20;94.10;;;;;;4996569;28;20026;-86
2022/05/17 00:05:16;;;;;;;8.93;3.10;;;18.20;94.20;;;;;;4996727;28;20029;-86
2022/05/17 00:07:41;;;;;;;10.23;3.72;;;18.20;94.30;;;;;;4980060;28;20117;-87
2022/05/17 00:10:08;;;;;;;8.77;3.10;;;18.10;94.30;;;;;;4964644;28;20030;-86
2022/05/17 00:12:35;;;;;;;10.27;2.85;;;18.10;94.40;;;;;;4996314;28;20041;-87
2022/05/17 00:15:01;;;;;;;6.70;3.20;;;18.10;94.50;;;;;;4998030;28;20120;-86
2022/05/17 00:17:26;;;;;;;10.02;3.90;;;18.10;94.50;;;;;;4967903;28;20101;-87
2022/05/17 00:19:52;;;;;;;9.35;3.10;;;18.10;94.60;;;;;;4968212;28;20495;-86
2022/05/17 00:22:18;;;;;;;9.65;3.42;;;18.00;94.60;;;;;;4968045;28;20025;-86
2022/05/17 00:24:44;;;;;;;8.13;3.83;;;18.00;94.70;;;;;;4984150;28;20026;-87
2022/05/17 00:27:10;;;;;;;9.10;3.20;;;18.00;94.80;;;;;;5018100;28;20026;-86
2022/05/17 00:29:36;;;;;;;8.13;3.33;;;18.00;94.90;;;;;;4967868;28;20034;-85
2022/05/17 00:32:03;;;;;;;6.35;3.10;;;17.90;95.00;;;;;;5000124;28;20025;-87
2022/05/17 00:34:29;;;;;;;8.82;3.67;;;17.90;95.10;;;;;;4984188;28;20029;-87
2022/05/17 00:36:55;;;;;;;7.03;3.40;;;17.90;95.20;;;;;;4983661;28;20030;-87
2022/05/17 00:39:20;;;;;;;7.50;3.42;;;17.90;95.40;;;;;;4983882;28;20022;-87
2022/05/17 00:41:46;;;;;;;8.98;3.80;;;17.90;95.50;;;;;;5000157;28;20026;-86
2022/05/17 00:47:01;;;;;;;8.02;3.72;;;17.90;95.80;;;;;;5017903;28;20033;-86
2022/05/17 00:49:40;;;;;;;11.63;4.15;;;17.90;96.00;;;;;;4999755;28;20486;-86
2022/05/17 00:52:29;;;;;;;6.40;3.72;;;17.90;96.00;;;;;;5000126;28;20103;-86
2022/05/17 00:54:59;;;;;;;14.05;3.78;;;17.80;96.00;;;;;;5000806;28;20484;-86
2022/05/17 00:57:29;;;;;;;7.40;4.05;;;17.80;96.10;;;;;;4999670;28;20103;-86
2022/05/17 00:59:59;;;;;;;10.43;3.65;;;17.80;96.20;;;;;;4999931;28;20110;-86
2022/05/17 01:02:27;;;;;;;6.20;3.65;;;17.80;96.20;;;;;;4999785;28;20030;-86
2022/05/17 01:04:53;;;;;;;9.88;4.22;;;17.80;96.10;;;;;;4983325;28;20502;-86
2022/05/17 01:07:22;;;;;;;8.25;3.58;;;17.70;96.10;;;;;;4983381;28;20040;-86
2022/05/17 01:09:48;;;;;;;9.27;3.65;;;17.70;96.20;;;;;;4999665;28;20022;-87
2022/05/17 01:12:14;;;;;;;9.65;3.58;;;17.70;96.20;;;;;;4983573;28;20448;-86
2022/05/17 01:14:58;;;;;;;11.90;4.22;;;17.70;96.10;;;;;;4967038;28;20038;-86
2022/05/17 01:17:33;;;;;;;9.82;4.00;;;17.60;96.10;;;;;;4971926;28;20037;-86
2022/05/17 01:20:01;;;;;;;8.55;3.78;;;17.60;96.20;;;;;;4999602;28;20468;-87
2022/05/17 01:22:27;;;;;;;9.60;4.03;;;17.60;96.20;;;;;;4983356;28;20026;-87
2022/05/17 01:24:53;;;;;;;9.95;4.65;;;17.60;96.30;;;;;;4999288;28;20121;-86
2022/05/17 01:27:33;;;;;;;8.55;3.55;;;17.60;96.30;;;;;;4966237;28;20096;-86
2022/05/17 01:29:59;;;;;;;9.43;3.90;;;17.50;96.40;;;;;;4999215;28;20026;-86
2022/05/17 01:32:25;;;;;;;9.45;3.78;;;17.50;96.50;;;;;;4999332;28;20100;-87
2022/05/17 01:34:51;;;;;;;12.55;3.83;;;17.50;96.60;;;;;;4966857;28;20060;-86
2022/05/17 01:37:17;;;;;;;9.50;3.83;;;17.50;96.70;;;;;;4982821;28;20085;-86
2022/05/17 01:39:44;;;;;;;9.13;3.55;;;17.50;96.80;;;;;;4998857;28;20037;-86
2022/05/17 01:42:11;;;;;;;8.00;3.67;;;17.50;96.90;;;;;;4966998;28;20029;-87
2022/05/17 01:44:38;;;;;;;9.30;4.22;;;17.50;96.90;;;;;;4999034;28;20014;-86
2022/05/17 01:47:05;;;;;;;10.05;4.43;;;17.50;96.90;;;;;;4982642;28;20378;-87
2022/05/17 01:49:30;;;;;;;10.90;4.15;;;17.50;97.00;;;;;;4982670;28;20030;-86
2022/05/17 01:51:56;;;;;;;10.45;4.15;;;17.50;97.00;;;;;;5016192;28;20064;-86
2022/05/17 01:54:23;;;;;;;9.52;4.05;;;17.50;97.10;;;;;;4982736;28;20105;-87
2022/05/17 01:56:48;;;;;;;7.95;4.20;;;17.50;97.20;;;;;;4998582;28;20030;-86
2022/05/17 01:59:14;;;;;;;7.18;3.80;;;17.40;97.20;;;;;;4998736;28;20502;-86
2022/05/17 02:01:40;;;;;;;9.60;4.18;;;17.40;97.30;;;;;;4982697;28;20522;-86
2022/05/17 02:04:06;;;;;;;10.15;4.07;;;17.40;97.40;;;;;;5015684;28;20088;-86
2022/05/17 02:06:32;;;;;;;8.45;3.55;;;17.40;97.40;;;;;;4998657;28;20092;-87
2022/05/17 02:08:57;;;;;;;9.85;3.90;;;17.40;97.50;;;;;;4998785;28;20054;-87
2022/05/17 02:11:23;;;;;;;7.85;3.60;;;17.40;97.60;;;;;;4966448;28;20033;-87
2022/05/17 02:13:49;;;;;;;10.27;4.10;;;17.30;97.60;;;;;;5015950;28;20052;-86
2022/05/17 02:16:14;;;;;;;8.02;3.83;;;17.40;97.70;;;;;;4982034;28;20432;-86
2022/05/17 02:18:40;;;;;;;7.10;3.63;;;17.30;97.70;;;;;;4998258;28;20024;-86
2022/05/17 02:21:06;;;;;;;8.40;3.63;;;17.40;97.90;;;;;;4982158;28;20026;-87
2022/05/17 02:23:31;;;;;;;8.95;3.65;;;17.30;97.90;;;;;;4998247;28;20053;-86
2022/05/17 02:25:57;;;;;;;8.50;3.75;;;17.30;98.00;;;;;;4981773;28;20048;-86
2022/05/17 02:28:24;;;;;;;13.18;4.20;;;17.30;98.10;;;;;;4998148;28;20033;-86
2022/05/17 02:30:49;;;;;;;8.50;3.58;;;17.30;98.20;;;;;;5015552;28;20423;-86
2022/05/17 02:33:16;;;;;;;9.63;3.50;;;17.30;98.20;;;;;;4981906;28;20034;-86
2022/05/17 02:35:42;;;;;;;9.07;3.92;;;17.30;98.30;;;;;;5015568;28;20034;-86
2022/05/17 02:38:09;;;;;;;7.30;3.70;;;17.30;98.40;;;;;;4981332;28;20069;-86
2022/05/17 02:40:35;;;;;;;8.07;3.95;;;17.30;98.50;;;;;;5015423;28;20129;-87
2022/05/17 02:43:01;;;;;;;10.35;4.18;;;17.30;98.50;;;;;;5015315;28;20021;-87
2022/05/17 02:45:28;;;;;;;10.95;4.07;;;17.30;98.60;;;;;;4997724;28;20022;-87
2022/05/17 02:47:53;;;;;;;8.38;3.97;;;17.30;98.70;;;;;;4998024;28;20029;-87
2022/05/17 02:50:20;;;;;;;9.02;3.92;;;17.30;98.70;;;;;;4981433;28;20116;-87
2022/05/17 02:52:46;;;;;;;8.27;4.22;;;17.30;98.70;;;;;;5015339;28;20022;-87
2022/05/17 02:55:12;;;;;;;9.20;3.88;;;17.30;98.80;;;;;;4981846;28;20046;-86
2022/05/17 02:57:38;;;;;;;8.38;4.05;;;17.30;98.80;;;;;;5015119;28;20028;-86
2022/05/17 03:00:09;;;;;;;9.40;4.03;;;17.30;98.80;;;;;;4965327;28;20022;-87
2022/05/17 03:02:35;;;;;;;;;;;17.30;98.80;;;;;;4997691;28;20014;-87
2022/05/17 03:05:01;;;;;;;8.93;3.50;;;17.30;98.80;;;;;;5021130;23;19928;-87
2022/05/17 03:07:27;;;;;;;8.32;3.95;;;17.30;98.80;;;;;;4997267;28;20033;-87
2022/05/17 03:09:52;;;;;;;8.20;3.88;;;17.20;98.80;;;;;;5014656;28;20033;-87
2022/05/17 03:12:18;;;;;;;7.85;3.90;;;17.20;98.90;;;;;;4997244;28;20088;-87
2022/05/17 03:14:44;;;;;;;11.60;4.50;;;17.20;98.90;;;;;;4997348;28;20497;-87
2022/05/17 03:17:11;;;;;;;8.43;4.25;;;17.20;98.90;;;;;;5014746;28;20029;-87
2022/05/17 03:19:38;;;;;;;8.68;4.10;;;17.10;98.90;;;;;;4981010;28;20021;-87
2022/05/17 03:22:05;;;;;;;8.68;3.78;;;17.20;99.00;;;;;;5013506;28;20026;-87
2022/05/17 03:24:31;;;;;;;12.15;4.93;;;17.10;99.00;;;;;;5013474;28;20434;-87
2022/05/17 03:26:57;;;;;;;10.85;4.95;;;17.10;99.00;;;;;;4997390;28;20471;-85
2022/05/17 03:29:23;;;;;;;8.63;4.50;;;17.10;99.10;;;;;;5013212;28;20025;-85
2022/05/17 03:31:49;;;;;;;9.23;4.30;;;17.10;99.10;;;;;;5013231;28;20487;-86
2022/05/17 03:34:15;;;;;;;11.77;4.85;;;17.10;99.20;;;;;;4980551;28;20034;-86
2022/05/17 03:36:40;;;;;;;8.00;4.43;;;17.10;99.20;;;;;;4996661;28;20038;-86
2022/05/17 03:39:06;;;;;;;16.25;5.15;;;17.10;99.30;;;;;;5014341;28;20030;-86
2022/05/17 03:41:32;;;;;;;11.23;5.10;;;17.00;99.40;;;;;;5012921;28;20463;-86
2022/05/17 03:43:58;;;;;;;11.10;5.15;;;17.10;99.50;;;;;;4996549;28;20474;-86
2022/05/17 03:46:23;;;;;;;9.70;4.55;;;17.00;99.50;;;;;;4996594;28;20030;-85
2022/05/17 03:48:49;;;;;;;11.23;5.10;;;17.00;99.60;;;;;;4996011;28;20099;-86
2022/05/17 03:51:18;;;;;;;9.93;4.68;;;17.00;99.60;;;;;;4996494;28;20030;-85
2022/05/17 03:53:44;;;;;;;10.40;4.60;;;17.00;99.60;;;;;;5013222;28;20037;-86
2022/05/17 03:56:11;;;;;;;10.73;5.10;;;17.00;99.60;;;;;;4996373;28;20057;-86
2022/05/17 03:58:37;;;;;;;11.48;4.55;;;17.00;99.60;;;;;;4996565;28;20486;-85
2022/05/17 04:01:04;;;;;;;11.77;4.53;;;17.00;99.70;;;;;;5012811;28;20084;-86
2022/05/17 04:03:31;;;;;;;8.15;4.60;;;17.00;99.80;;;;;;5012656;28;20026;-86
2022/05/17 04:05:57;;;;;;;9.60;4.15;;;17.00;99.80;;;;;;5012655;28;20076;-86
2022/05/17 04:08:22;;;;;;;7.57;3.88;;;16.90;99.90;;;;;;5012725;28;20104;-86
2022/05/17 04:10:48;;;;;;;8.63;3.95;;;17.00;99.90;;;;;;5013072;28;20415;-86
2022/05/17 04:13:14;;;;;;;6.88;4.30;;;17.00;99.90;;;;;;5012627;28;20040;-86
2022/05/17 04:15:41;;;;;;;10.75;4.63;;;16.90;99.90;;;;;;5013920;28;20104;-86
2022/05/17 04:18:07;;;;;;;9.32;4.60;;;16.90;99.90;;;;;;4996373;28;20022;-86
2022/05/17 04:20:33;;;;;;;9.40;4.50;;;16.90;99.90;;;;;;4996529;28;20053;-86
2022/05/17 04:22:59;;;;;;;6.72;3.75;;;16.90;99.90;;;;;;5013080;28;20030;-86
2022/05/17 04:25:26;;;;;;;8.90;4.32;;;16.90;99.90;;;;;;5012796;28;20563;-86
2022/05/17 04:27:52;;;;;;;7.47;3.97;;;16.90;99.90;;;;;;5014006;28;20061;-86
2022/05/17 04:30:19;;;;;;;8.25;4.18;;;16.90;99.90;;;;;;4996322;28;20026;-86
2022/05/17 04:32:46;;;;;;;8.38;4.13;;;16.90;99.90;;;;;;5012451;28;20030;-86
2022/05/17 04:35:13;;;;;;;9.68;4.57;;;16.90;99.90;;;;;;5012596;28;20037;-86
2022/05/17 04:37:39;;;;;;;8.05;4.95;;;16.90;99.90;;;;;;5012207;28;20030;-86
2022/05/17 04:40:08;;;;;;;6.88;4.28;;;16.90;99.90;;;;;;5013621;28;20045;-86
2022/05/17 04:42:38;;;;;;;10.88;5.00;;;16.90;99.90;;;;;;4996912;28;20030;-85
2022/05/17 04:45:06;;;;;;;7.85;4.20;;;16.90;99.90;;;;;;4997119;28;20250;-86
2022/05/17 04:47:32;;;;;;;9.00;5.15;;;16.90;99.90;;;;;;5013697;28;20084;-87
2022/05/17 04:49:58;;;;;;;6.43;4.10;;;16.90;99.90;;;;;;4996099;28;20038;-85
2022/05/17 04:52:24;;;;;;;8.32;4.50;;;17.00;99.90;;;;;;4979886;28;20479;-86
2022/05/17 04:54:51;;;;;;;6.32;4.30;;;17.00;99.90;;;;;;5013596;28;20036;-86
2022/05/17 04:57:23;;;;;;;7.10;4.10;;;17.00;99.90;;;;;;4980015;28;20458;-86
2022/05/17 04:59:48;;;;;;;7.75;4.50;;;17.00;99.90;;;;;;4979832;28;20479;-86
2022/05/17 05:02:14;;;;;;;9.55;4.50;;;17.00;99.90;;;;;;5016000;28;20032;-86
2022/05/17 05:04:40;;;;;;;9.43;5.40;;;17.00;99.90;;;;;;5016259;28;20042;-85
2022/05/17 05:07:06;;;;;;;7.13;4.57;;;17.00;99.90;;;;;;5016013;28;20027;-86
2022/05/17 05:09:32;;;;;;;6.88;4.22;;;17.00;99.90;;;;;;4999478;28;20034;-87
2022/05/17 05:11:59;;;;;;;8.32;4.40;;;17.00;99.90;;;;;;5015682;28;20029;-86
2022/05/17 05:14:25;;;;;;;11.05;5.50;;;17.00;99.90;;;;;;5017107;28;20368;-86
2022/05/17 05:16:52;;;;;;;9.25;4.93;;;17.00;99.90;;;;;;5016778;28;20026;-86
2022/05/17 05:19:17;;;;;;;8.80;4.80;;;17.00;99.90;;;;;;5015734;28;20069;-86
2022/05/17 05:21:43;;;;;;;9.63;5.07;;;17.10;99.90;;;;;;5016812;28;20022;-85
2022/05/17 05:24:11;;;;;;;10.02;5.15;;;17.10;99.90;;;;;;5015260;28;20384;-86
2022/05/17 05:26:38;;;;;;;12.32;5.22;;;17.10;99.90;;;;;;4999457;28;20045;-87
2022/05/17 05:29:05;;;;;;;11.45;5.30;;;17.00;99.90;;;;;;5016610;28;20085;-86
2022/05/17 05:31:30;;;;;;;12.82;5.75;;;17.00;99.90;;;;;;4998887;28;20030;-86
2022/05/17 05:33:56;;;;;;;9.90;5.57;;;17.00;99.90;;;;;;4981377;28;20491;-86
2022/05/17 05:36:22;;;;;;;8.90;5.18;;;17.00;99.90;;;;;;5014060;28;20033;-86
2022/05/17 05:38:48;;;;;;;10.68;5.70;;;17.10;99.90;;;;;;4998931;28;20022;-86
2022/05/17 05:41:14;;;;;;;10.43;6.30;;;17.00;99.90;;;;;;5014980;28;20030;-85
2022/05/17 05:43:41;;;;;;;10.10;5.63;;;17.10;99.90;;;;;;5014524;28;20036;-86
2022/05/17 05:46:08;;;;;;;10.27;5.43;;;17.10;99.90;;;;;;5014574;28;20022;-86
2022/05/17 05:48:33;;;;;;;10.93;6.38;;;17.10;99.90;;;;;;5015648;28;20053;-86
2022/05/17 05:50:59;;;;;;;11.43;6.22;;;17.10;99.90;;;;;;4994670;28;20069;-86
2022/05/17 05:53:25;;;;;;;13.40;6.43;;;17.10;99.90;;;;;;4996677;28;20073;-86
2022/05/17 05:55:57;;;;;;;10.73;6.63;;;17.10;99.90;;;;;;4996376;28;20034;-86
2022/05/17 05:58:25;;;;;;;9.20;6.20;;;17.10;99.90;;;;;;4979477;28;20057;-87
2022/05/17 06:00:50;;;;;;;11.70;6.63;;;17.10;99.90;;;;;;4995050;28;20526;-86
2022/05/17 06:03:16;;;;;;;8.90;5.90;;;17.20;99.90;;;;;;4978896;28;20062;-86
2022/05/17 06:05:42;;;;;;;12.20;6.28;;;17.20;99.90;;;;;;4978451;28;20078;-86
2022/05/17 06:08:13;;;;;;;10.45;5.93;;;17.20;99.90;;;;;;4978923;28;20056;-85
2022/05/17 06:10:41;;;;;;;11.38;6.82;;;17.20;99.90;;;;;;4996223;28;20027;-86
2022/05/17 06:13:07;;;;;;;10.35;6.55;;;17.20;99.90;;;;;;4994348;28;20435;-86
2022/05/17 06:15:33;;;;;;;12.52;6.68;;;17.30;99.90;;;;;;4995001;28;20033;-86
2022/05/17 06:18:07;;;;;;;12.20;6.80;;;17.30;99.90;;;;;;4996104;28;20401;-86
2022/05/17 06:20:33;;;;;;;8.95;6.57;;;17.30;99.90;;;;;;4994860;28;20496;-85
2022/05/17 06:22:59;;;;;;;13.50;6.65;;;17.30;99.90;;;;;;4994732;28;20018;-86
2022/05/17 06:25:25;;;;;;;11.82;6.68;;;17.30;99.90;;;;;;4978817;28;20029;-86
2022/05/17 06:27:51;;;;;;;14.57;8.02;;;17.30;99.90;;;;;;4978353;28;20389;-86
2022/05/17 06:30:17;;;;;;;13.75;6.85;;;17.40;99.90;;;;;;4994487;28;20035;-86
2022/05/17 06:32:43;;;;;;;12.90;6.80;;;17.40;99.90;;;;;;4995705;28;20034;-86
2022/05/17 06:35:10;;;;;;;11.23;7.28;;;17.40;99.90;;;;;;4994592;28;20029;-86
2022/05/17 06:37:37;;;;;;;11.57;6.68;;;17.40;99.90;;;;;;4978494;28;20125;-86
2022/05/17 06:40:04;;;;;;;17.42;6.97;;;17.40;99.90;;;;;;4995681;28;20025;-86
2022/05/17 06:42:30;;;;;;;12.18;7.82;;;17.50;99.90;;;;;;4978486;28;20419;-87
2022/05/17 06:44:56;;;;;;;11.90;7.32;;;17.50;99.90;;;;;;4980424;28;20481;-87
2022/05/17 06:47:22;;;;;;;12.50;6.75;;;17.50;99.90;;;;;;4980957;28;20033;-87
2022/05/17 06:49:47;;;;;;;13.23;7.10;;;17.50;99.90;;;;;;4996985;28;20113;-87
2022/05/17 06:52:13;;;;;;;13.07;7.95;;;17.60;99.90;;;;;;4993878;28;20030;-87
2022/05/17 06:54:43;;;;;;;11.82;7.22;;;17.60;99.90;;;;;;4995619;28;20492;-87
2022/05/17 06:57:11;;;;;;;11.02;7.32;;;17.60;99.90;;;;;;5011119;28;20030;-87
2022/05/17 06:59:37;;;;;;;11.73;7.50;;;17.60;99.90;;;;;;5013747;28;20029;-87
2022/05/17 07:02:04;;;;;;;13.50;7.18;;;17.70;99.90;;;;;;5020387;28;20029;-87
2022/05/17 07:04:32;;;;;;;15.20;7.47;;;17.70;99.90;;;;;;5003371;28;20091;-87
2022/05/17 07:06:58;;;;;;;13.23;6.95;;;17.70;99.90;;;;;;5020638;28;20117;-87
2022/05/17 07:09:26;;;;;;;11.43;6.47;;;17.80;99.90;;;;;;5003310;28;20572;-87
2022/05/17 07:14:40;;;;;;;10.90;6.68;;;17.80;99.90;;;;;;5014273;28;20085;-87
2022/05/17 07:17:17;;;;;;;11.68;6.57;;;17.80;99.90;;;;;;4981951;28;20025;-87
2022/05/17 07:19:44;;;;;;;10.40;5.97;;;17.80;99.90;;;;;;5014920;28;20026;-86
2022/05/17 07:22:10;;;;;;;9.98;6.25;;;17.90;99.90;;;;;;4997228;28;20024;-87
2022/05/17 07:24:36;;;;;;;10.32;6.55;;;17.90;99.90;;;;;;5012351;28;20022;-86
2022/05/17 07:27:05;;;;;;;12.65;6.40;;;17.90;99.90;;;;;;5013481;28;20038;-87
2022/05/17 07:29:30;;;;;;;9.30;5.70;;;17.90;99.90;;;;;;5013224;28;20048;-87
2022/05/17 07:31:56;;;;;;;10.60;6.28;;;17.90;99.90;;;;;;5012810;28;20410;-87
2022/05/17 07:34:23;;;;;;;11.48;6.57;;;17.90;99.90;;;;;;4996487;28;20030;-87
2022/05/17 07:36:49;;;;;;;11.52;6.45;;;18.00;99.90;;;;;;5014578;28;20383;-87
2022/05/17 07:39:15;;;;;;;12.77;6.65;;;18.00;99.90;;;;;;4996786;28;20088;-87
2022/05/17 07:41:42;;;;;;;9.85;6.22;;;18.00;99.90;;;;;;4995885;28;20105;-87
2022/05/17 07:44:08;;;;;;;9.82;5.57;;;18.00;99.90;;;;;;5011570;28;20068;-87
2022/05/17 07:46:34;;;;;;;10.68;6.13;;;18.00;99.90;;;;;;4996561;28;20022;-87
2022/05/17 07:49:01;;;;;;;14.38;6.40;;;18.10;99.90;;;;;;5012923;28;20018;-87
2022/05/17 07:51:27;;;;;;;10.70;6.13;;;18.10;99.90;;;;;;5012987;28;20029;-88
2022/05/17 07:53:54;;;;;;;8.60;5.93;;;18.10;99.90;;;;;;4996781;28;20029;-87
2022/05/17 07:56:19;;;;;;;8.93;5.85;;;18.10;99.90;;;;;;5012764;28;20014;-87
2022/05/17 07:58:45;;;;;;;9.40;6.20;;;18.10;99.90;;;;;;5012863;28;20034;-87
2022/05/17 08:01:12;;;;;;;13.02;6.65;;;18.10;99.90;;;;;;4996466;28;20025;-87
2022/05/17 08:03:38;;;;;;;11.82;6.25;;;18.20;99.90;;;;;;4996604;28;20410;-87
2022/05/17 08:06:04;;;;;;;12.50;6.38;;;18.20;99.90;;;;;;4996135;28;20049;-87
2022/05/17 08:08:29;;;;;;;10.82;5.82;;;18.20;99.90;;;;;;4980284;28;20037;-87
2022/05/17 08:10:55;;;;;;;9.35;5.47;;;18.20;99.90;;;;;;5012757;28;20120;-88
2022/05/17 08:13:23;;;;;;;12.77;6.10;;;18.20;99.90;;;;;;4980040;28;20124;-88
2022/05/17 08:15:49;;;;;;;9.70;5.53;;;18.30;99.90;;;;;;5012653;28;20117;-87
2022/05/17 08:18:16;;;;;;;11.45;6.13;;;18.20;99.90;;;;;;4996444;28;20121;-87
2022/05/17 08:20:42;;;;;;;9.45;5.93;;;18.20;99.90;;;;;;5012636;28;20022;-87
2022/05/17 08:23:08;;;;;;;10.25;6.05;;;18.20;99.90;;;;;;5012922;28;20018;-87
2022/05/17 08:28:18;;;;;;;8.98;5.65;;;18.30;99.90;;;;;;5012720;28;20057;-87
2022/05/17 08:30:46;;;;;;;11.05;5.13;;;18.30;99.90;;;;;;4995166;28;20391;-87
2022/05/17 08:33:17;;;;;;;9.98;5.20;;;18.30;99.90;;;;;;5011209;28;20030;-86
2022/05/17 08:35:45;;;;;;;;;;;18.30;99.90;;;;;;4997191;28;20033;-87
2022/05/17 08:38:18;;;;;;;10.63;5.32;;;18.40;99.90;;;;;;5016098;28;19917;-86
2022/05/17 08:41:05;;;;;;;11.25;6.15;;;18.40;99.90;;;;;;5016377;28;20022;-86
2022/05/17 08:43:40;;;;;;;11.35;5.93;;;18.40;99.90;;;;;;5016248;28;20022;-86
2022/05/17 08:46:44;;;;;;;9.32;5.20;;;18.40;99.90;;;;;;5016203;28;20018;-86
2022/05/17 08:49:33;;;;;;;9.73;5.22;;;18.40;99.90;;;;;;5016896;28;20036;-87
2022/05/17 08:52:11;;;;;;;12.13;5.95;;;18.40;99.90;;;;;;5015924;28;20121;-87
2022/05/17 08:54:45;;;;;;;10.00;5.43;;;18.40;99.90;;;;;;5017338;28;20022;-86
2022/05/17 08:57:41;;;;;;;9.88;5.50;;;18.40;99.90;;;;;;5016152;28;20072;-86
2022/05/17 09:00:45;;;;;;;12.85;6.85;;;18.50;99.90;;;;;;5015989;28;20026;-86
2022/05/17 09:03:43;;;;;;;8.88;5.53;;;18.50;99.90;;;;;;5015776;28;20041;-86
2022/05/17 09:06:23;;;;;;;9.25;4.82;;;18.50;99.90;;;;;;5015478;28;20042;-87
2022/05/17 09:09:24;;;;;;;9.82;4.75;;;18.60;99.90;;;;;;5015656;28;20030;-87
2022/05/17 09:12:09;;;;;;;9.13;4.57;;;18.60;99.90;;;;;;4975310;28;20038;-87
2022/05/17 09:14:40;;;;;;;8.18;4.22;;;18.60;99.90;;;;;;5015611;28;20029;-87
2022/05/17 09:17:15;;;;;;;8.90;4.60;;;18.60;99.90;;;;;;5015609;28;20026;-87
2022/05/17 09:19:41;;;;;;;14.07;5.18;;;18.70;99.90;;;;;;5015799;28;20056;-87
2022/05/17 09:22:07;;;;;;;11.77;4.25;;;18.70;99.90;;;;;;5015788;28;20552;-87
2022/05/17 09:24:41;;;;;;;11.43;3.58;;;18.70;99.90;;;;;;4999528;28;20113;-87
2022/05/17 09:27:22;;;;;;;10.63;3.78;;;18.70;99.90;;;;;;5015830;28;20084;-86
2022/05/17 09:29:50;;;;;;;11.93;4.30;;;18.70;99.90;;;;;;5015509;28;20365;-87
2022/05/17 09:32:30;;;;;;;13.18;4.53;;;18.80;99.90;;;;;;5015795;28;20061;-87
2022/05/17 09:35:02;;;;;;;9.50;4.55;;;18.80;99.90;;;;;;5016704;28;20026;-86
2022/05/17 09:37:34;;;;;;;10.30;4.60;;;18.80;99.90;;;;;;5017738;28;20083;-87
2022/05/17 09:40:05;;;;;;;8.57;4.43;;;18.90;99.90;;;;;;5015257;28;20026;-87
2022/05/17 09:42:42;;;;;;;12.10;5.63;;;18.90;99.90;;;;;;5015599;28;20022;-88
2022/05/17 09:45:17;;;;;;;9.80;5.53;;;18.90;99.90;;;;;;5015617;28;20034;-87
2022/05/17 09:54:14;;;;;;;11.40;5.72;;;19.00;99.90;;;;;;5016990;28;20064;-87
2022/05/17 09:56:39;;;;;;;13.00;6.43;;;19.00;99.90;;;;;;4999437;28;20038;-87
2022/05/17 09:59:21;;;;;;;11.95;5.80;;;19.00;99.90;;;;;;5016072;28;20073;-88
2022/05/17 10:01:48;;;;;;;11.30;6.00;;;19.00;99.90;;;;;;5018010;28;20025;-88
2022/05/17 10:04:19;;;;;;;10.75;5.47;;;19.10;99.90;;;;;;5016532;28;20018;-88
2022/05/17 10:06:56;;;;;;;9.93;5.53;;;19.10;99.90;;;;;;5015141;28;20104;-88
2022/05/17 10:09:33;;;;;;;8.73;4.72;;;19.10;99.90;;;;;;5015303;28;20029;-88
2022/05/17 10:12:07;;;;;;;9.90;4.28;;;19.10;99.90;;;;;;5014794;28;20026;-88
2022/05/17 10:14:50;;;;;;;9.48;3.92;;;19.20;99.90;;;;;;5014784;28;20486;-88
2022/05/17 10:17:26;;;;;;;9.60;4.35;;;19.20;99.90;;;;;;5015020;28;20526;-88
2022/05/17 10:20:02;;;;;;;9.98;4.93;;;19.30;99.90;;;;;;5014917;28;20539;-87
2022/05/17 10:22:37;;;;;;;11.43;4.90;;;19.40;99.90;;;;;;5014802;28;20033;-87
2022/05/17 10:25:14;;;;;;;6.90;3.90;;;19.40;99.90;;;;;;5014539;28;20543;-87
2022/05/17 10:27:44;;;;;;;8.85;4.28;;;19.60;99.90;;;;;;5015045;28;20491;-88
2022/05/17 10:30:22;;;;;;;11.13;5.70;;;19.60;99.90;;;;;;5014902;28;20022;-87
2022/05/17 10:33:05;;;;;;;10.55;5.45;;;19.70;99.90;;;;;;5014809;28;20057;-88
2022/05/17 10:35:38;;;;;;;13.82;6.00;;;19.80;99.90;;;;;;5014978;28;20383;-87
2022/05/17 10:38:10;;;;;;;11.90;6.10;;;19.90;99.90;;;;;;5014617;28;20034;-87
2022/05/17 10:40:46;;;;;;;12.77;6.40;;;19.90;99.90;;;;;;5014712;28;20029;-87
2022/05/17 10:43:25;;;;;;;11.60;5.50;;;19.90;99.90;;;;;;5014497;28;20452;-88
2022/05/17 10:46:01;;;;;;;9.77;4.50;;;20.00;99.90;;;;;;5015261;28;20163;-88
2022/05/17 10:49:09;;;;;;;12.15;5.25;;;20.10;99.90;;;;;;5015815;28;20498;-88
2022/05/17 10:52:13;;;;;;;15.82;5.32;;;20.10;99.90;;;;;;5016133;28;20033;-88
2022/05/17 10:54:47;;;;;;;10.93;4.63;;;20.10;99.90;;;;;;5016100;28;20060;-87
2022/05/17 10:57:27;;;;;;;10.13;5.00;;;20.20;99.90;;;;;;5015799;28;20032;-88
2022/05/17 11:00:14;;;;;;;12.68;5.25;;;20.20;99.90;;;;;;5014689;28;20029;-88
2022/05/17 11:02:49;;;;;;;9.57;4.25;;;20.30;99.90;;;;;;5011540;28;20406;-87
2022/05/17 11:05:26;;;;;;;10.18;5.05;;;20.30;99.80;;;;;;5013884;28;20058;-88
2022/05/17 11:08:13;;;;;;;13.55;5.40;;;20.40;99.70;;;;;;5014152;28;20022;-87
2022/05/17 11:10:54;;;;;;;13.85;5.70;;;20.40;99.40;;;;;;5015030;28;20033;-87
2022/05/17 11:13:31;;;;;;;11.90;5.30;;;20.50;99.10;;;;;;5014022;28;20379;-87
2022/05/17 11:16:18;;;;;;;11.20;5.75;;;20.50;98.90;;;;;;5014142;28;20045;-87
2022/05/17 11:18:53;;;;;;;13.25;6.53;;;20.60;98.80;;;;;;5015238;28;20041;-87
2022/05/17 11:21:41;;;;;;;12.07;5.32;;;20.60;98.70;;;;;;5013643;28;20060;-88
2022/05/17 11:24:52;;;;;;;10.93;4.68;;;20.60;98.40;;;;;;5014077;28;20467;-87
2022/05/17 11:27:23;;;;;;;9.60;5.00;;;20.70;98.30;;;;;;4995128;28;20118;-88
2022/05/17 11:30:10;;;;;;;9.85;5.10;;;20.70;98.20;;;;;;5013498;28;20030;-88
2022/05/17 11:32:40;;;;;;;10.55;4.90;;;20.80;97.70;;;;;;5013766;28;20034;-88
2022/05/17 11:35:31;;;;;;;11.30;4.40;;;20.80;97.70;;;;;;5014099;28;20476;-88
2022/05/17 11:37:59;;;;;;;9.77;4.38;;;20.80;97.70;;;;;;5013195;28;20289;-87
2022/05/17 11:40:43;;;;;;;9.63;4.43;;;20.90;97.60;;;;;;5013466;28;20049;-88
2022/05/17 11:45:56;;;;;;;14.65;5.07;;;20.90;97.00;;;;;;5015217;28;20045;-87
2022/05/17 11:48:42;;;;;;;11.55;4.60;;;21.00;96.70;;;;;;5013438;28;20176;-87
2022/05/17 11:51:08;;;;;;;12.35;4.97;;;21.00;96.30;;;;;;5014023;28;20530;-87
2022/05/17 11:53:45;;;;;;;7.85;4.47;;;21.00;96.30;;;;;;5015311;28;20368;-87
2022/05/17 11:56:12;;;;;;;11.48;3.97;;;21.10;96.20;;;;;;5015311;28;20101;-88
2022/05/17 11:58:39;;;;;;;11.43;4.20;;;21.10;96.20;;;;;;5013601;28;20120;-87
2022/05/17 12:01:29;;;;;;;8.35;3.80;;;21.10;96.00;;;;;;5013867;28;20065;-88
2022/05/17 12:03:57;;;;;;;9.57;4.15;;;21.20;96.00;;;;;;5014960;28;20034;-88
2022/05/17 12:06:54;;;;;;;9.85;4.35;;;21.20;96.00;;;;;;5020420;28;20554;-87
2022/05/17 12:09:20;;;;;;;9.32;4.40;;;21.20;95.80;;;;;;5024014;28;20034;-87
2022/05/17 12:12:04;;;;;;;16.35;5.45;;;21.30;95.80;;;;;;5022892;28;20013;-88
2022/05/17 12:14:47;;;;;;;12.73;5.45;;;21.40;95.80;;;;;;5022552;28;20052;-88
2022/05/17 12:17:26;;;;;;;9.57;4.60;;;21.40;95.70;;;;;;5018920;28;20030;-88
2022/05/17 12:20:14;;;;;;;11.18;5.07;;;21.50;95.70;;;;;;5014195;28;20029;-88
2022/05/17 12:22:58;;;;;;;8.38;5.00;;;21.60;95.80;;;;;;5012868;28;20101;-88
2022/05/17 12:25:38;;;;;;;14.63;6.75;;;21.60;95.90;;;;;;5013149;28;20471;-88
2022/05/17 12:28:09;;;;;;;9.13;5.53;;;21.70;95.70;;;;;;5015026;28;20109;-88
2022/05/17 12:33:36;;;;;;;13.95;6.35;;;21.90;95.60;;;;;;5002142;28;20030;-88
2022/05/17 12:36:20;;;;;;;13.07;6.78;;;22.00;95.50;;;;;;5012983;28;20049;-88
2022/05/17 12:44:39;;;;;;;11.93;5.78;;;22.30;95.30;;;;;;5015450;28;20096;-88
2022/05/17 12:47:10;;;;;;;10.77;5.63;;;22.30;95.00;;;;;;5013435;28;20041;-88
2022/05/17 12:49:38;;;;;;;12.27;5.45;;;22.40;94.90;;;;;;5013154;28;20064;-88
2022/05/17 12:52:35;;;;;;;8.43;4.80;;;22.50;94.60;;;;;;4997001;28;20041;-87
2022/05/17 12:55:12;;;;;;;9.30;4.53;;;22.60;94.20;;;;;;5012802;28;20041;-88
2022/05/17 12:57:39;;;;;;;8.52;4.50;;;22.70;94.00;;;;;;5014100;28;20538;-88
2022/05/17 13:00:22;;;;;;;9.65;4.38;;;22.80;94.00;;;;;;4996396;28;20471;-88
2022/05/17 13:02:51;;;;;;;8.38;4.60;;;22.80;93.70;;;;;;5012467;28;20383;-88
2022/05/17 13:05:41;;;;;;;7.60;4.13;;;22.90;93.30;;;;;;5012578;28;20365;-88
2022/05/17 13:08:11;;;;;;;7.80;3.50;;;23.00;93.20;;;;;;5013440;28;20506;-88
2022/05/17 13:10:40;;;;;;;10.20;3.92;;;23.00;92.00;;;;;;5012298;28;20029;-88
2022/05/17 13:13:14;;;;;;;9.50;3.80;;;23.10;91.40;;;;;;5012148;28;20502;-87
2022/05/17 13:15:43;;;;;;;6.63;3.03;;;23.20;91.70;;;;;;4996141;28;20117;-89
2022/05/17 13:18:10;;;;;;;8.93;3.60;;;23.30;91.50;;;;;;5012051;28;20029;-88
2022/05/17 13:20:37;;;;;;;10.00;3.13;;;23.30;91.50;;;;;;4980098;28;20026;-89
2022/05/17 13:23:04;;;;;;;6.28;3.22;;;23.40;91.20;;;;;;5014073;28;20169;-88
2022/05/17 13:25:41;;;;;;;6.40;2.75;;;23.40;91.10;;;;;;5016080;28;20029;-88